Algoma Mariner — CFN5517 — position and weather

sailwx.info

Track history (hours):
 
Tides and Currents Weather Stations Pressure Air Temp Water Temp Dewpoint Dewpoint Depression Visibility Wind Speed Wind Dir Waves Ship Positions

Algoma Mariner

Last reported at 2017-Aug-21 01:00 UTC. Time now 2017-Aug-21 01:01 UTC.
Position N 45°34' W 085°21'.

Length 225 m; draft 8.1 m.

Type: Cargo ship. MMSI: 316014050.

Date/timePositionNaut miles runAvg speedWind from/ knotsBaromVisibWave heightAir tempDewpointWater temp
2017-Aug-21 01:00N 45°34' W 085°21'713.3
2017-Aug-21 00:30N 45°29' W 085°27'713.4
2017-Aug-21 00:00N 45°23' W 085°32'713.5
2017-Aug-20 23:30N 45°18' W 085°38'713.7
2017-Aug-20 23:00N 45°12' W 085°44'  
2017-Aug-18 08:21N 45°51' W 085°40'2112.0
2017-Aug-18 06:38N 45°52' W 085°11'212.4
2017-Aug-18 06:30N 45°51' W 085°09'612.3
2017-Aug-18 06:00N 45°50' W 084°60'612.9
2017-Aug-18 05:30N 45°50' W 084°51'612.6
2017-Aug-18 05:00N 45°49' W 084°42'612.7
2017-Aug-18 04:30N 45°45' W 084°34'612.1
2017-Aug-18 04:00N 45°42' W 084°26'510.9
2017-Aug-18 03:30N 45°41' W 084°19'2212.6
2017-Aug-18 01:44N 45°32' W 083°49'313.2
2017-Aug-18 01:30N 45°31' W 083°46'713.3
2017-Aug-18 01:00N 45°28' W 083°37'2136.7
2017-Aug-18 01:00N 45°30' W 083°36'714.6 140 / 10999.0 19.0 12.0
2017-Aug-18 00:30N 45°25' W 083°28'200 8.5
2017-Aug-17 01:00N 42°06' W 083°06'354 7.7 160 / 101014.010.8 21.0
2017-Aug-15 03:00N 44°30' W 075°42'15 7.4 170 / 101000.010.8 23.0
2017-Aug-15 01:00N 44°42' W 075°30'63 6.2 190 / 51000.010.8 23.0
2017-Aug-14 14:47N 45°14' W 074°13'3 9.1
2017-Aug-14 14:30N 45°14' W 074°09'4 7.5
2017-Aug-14 14:00N 45°13' W 074°04'4 8.4
2017-Aug-14 13:30N 45°15' W 073°58'4 7.2
2017-Aug-14 13:00N 45°18' W 073°56'0 0.5
2017-Aug-14 12:30N 45°18' W 073°55'1 1.3
2017-Aug-14 11:58N 45°19' W 073°55'0 0.7
2017-Aug-14 11:30N 45°19' W 073°55'2 3.1
2017-Aug-14 11:00N 45°20' W 073°53'5 9.6
2017-Aug-14 10:30N 45°23' W 073°48'4 8.2
2017-Aug-14 10:00N 45°25' W 073°42'3 5.6
2017-Aug-14 09:30N 45°24' W 073°38'2 4.9
2017-Aug-14 09:01N 45°24' W 073°35'1 1.4
2017-Aug-14 08:24N 45°24' W 073°34'1 1.5
2017-Aug-14 07:59N 45°24' W 073°33'2 4.7
2017-Aug-14 07:30N 45°26' W 073°30'3 5.8
2017-Aug-14 07:00N 45°29' W 073°31'1 1.7
2017-Aug-14 06:07N 45°30' W 073°31'120 2.4
2017-Aug-12 03:00N 46°42' W 071°12'12110.2 050 / 101013.0 5.4 21.0
2017-Aug-11 15:11N 45°30' W 073°31'2 1.8
2017-Aug-11 13:58N 45°27' W 073°30'5 2.6
2017-Aug-11 11:59N 45°24' W 073°36'2 4.8
2017-Aug-11 11:29N 45°25' W 073°39'3 4.8
2017-Aug-11 10:56N 45°24' W 073°43'4 9.4
2017-Aug-11 10:30N 45°23' W 073°49'611.2
2017-Aug-11 10:00N 45°20' W 073°55'1 1.3
2017-Aug-11 09:30N 45°19' W 073°55'1 1.4
2017-Aug-11 09:00N 45°18' W 073°56'0 0.2
2017-Aug-11 08:29N 45°18' W 073°56'0 1.0
2017-Aug-11 08:00N 45°18' W 073°56'2 3.3
2017-Aug-11 07:30N 45°16' W 073°57'4 7.3
2017-Aug-11 07:00N 45°14' W 074°01'4 8.9
2017-Aug-11 06:30N 45°14' W 074°07'5 9.8
2017-Aug-11 06:00N 45°14' W 074°14'611.9
2017-Aug-11 05:30N 45°10' W 074°21'  
Track history (hours):
 
Tides and Currents Weather Stations Pressure Air Temp Water Temp Dewpoint Dewpoint Depression Visibility Wind Speed Wind Dir Waves Ship Positions

Algoma Mariner

Last reported at 2017-Aug-21 01:00 UTC. Time now 2017-Aug-21 01:01 UTC.
Position N 45°34' W 085°21'.

Length 225 m; draft 8.1 m.

Type: Cargo ship. MMSI: 316014050.

Date/timePositionNaut miles runAvg speedWind from/ knotsBaromVisibWave heightAir tempDewpointWater temp
2017-Aug-21 01:00N 45°34' W 085°21'713.3
2017-Aug-21 00:30N 45°29' W 085°27'713.4
2017-Aug-21 00:00N 45°23' W 085°32'713.5
2017-Aug-20 23:30N 45°18' W 085°38'713.7
2017-Aug-20 23:00N 45°12' W 085°44'  
2017-Aug-18 08:21N 45°51' W 085°40'2112.0
2017-Aug-18 06:38N 45°52' W 085°11'212.4
2017-Aug-18 06:30N 45°51' W 085°09'612.3
2017-Aug-18 06:00N 45°50' W 084°60'612.9
2017-Aug-18 05:30N 45°50' W 084°51'612.6
2017-Aug-18 05:00N 45°49' W 084°42'612.7
2017-Aug-18 04:30N 45°45' W 084°34'612.1
2017-Aug-18 04:00N 45°42' W 084°26'510.9
2017-Aug-18 03:30N 45°41' W 084°19'2212.6
2017-Aug-18 01:44N 45°32' W 083°49'313.2
2017-Aug-18 01:30N 45°31' W 083°46'713.3
2017-Aug-18 01:00N 45°28' W 083°37'2136.7
2017-Aug-18 01:00N 45°30' W 083°36'714.6 140 / 10999.0 19.0 12.0
2017-Aug-18 00:30N 45°25' W 083°28'200 8.5
2017-Aug-17 01:00N 42°06' W 083°06'354 7.7 160 / 101014.010.8 21.0
2017-Aug-15 03:00N 44°30' W 075°42'15 7.4 170 / 101000.010.8 23.0
2017-Aug-15 01:00N 44°42' W 075°30'63 6.2 190 / 51000.010.8 23.0
2017-Aug-14 14:47N 45°14' W 074°13'3 9.1
2017-Aug-14 14:30N 45°14' W 074°09'4 7.5
2017-Aug-14 14:00N 45°13' W 074°04'4 8.4
2017-Aug-14 13:30N 45°15' W 073°58'4 7.2
2017-Aug-14 13:00N 45°18' W 073°56'0 0.5
2017-Aug-14 12:30N 45°18' W 073°55'1 1.3
2017-Aug-14 11:58N 45°19' W 073°55'0 0.7
2017-Aug-14 11:30N 45°19' W 073°55'2 3.1
2017-Aug-14 11:00N 45°20' W 073°53'5 9.6
2017-Aug-14 10:30N 45°23' W 073°48'4 8.2
2017-Aug-14 10:00N 45°25' W 073°42'3 5.6
2017-Aug-14 09:30N 45°24' W 073°38'2 4.9
2017-Aug-14 09:01N 45°24' W 073°35'1 1.4
2017-Aug-14 08:24N 45°24' W 073°34'1 1.5
2017-Aug-14 07:59N 45°24' W 073°33'2 4.7
2017-Aug-14 07:30N 45°26' W 073°30'3 5.8
2017-Aug-14 07:00N 45°29' W 073°31'1 1.7
2017-Aug-14 06:07N 45°30' W 073°31'120 2.4
2017-Aug-12 03:00N 46°42' W 071°12'12110.2 050 / 101013.0 5.4 21.0
2017-Aug-11 15:11N 45°30' W 073°31'2 1.8
2017-Aug-11 13:58N 45°27' W 073°30'5 2.6
2017-Aug-11 11:59N 45°24' W 073°36'2 4.8
2017-Aug-11 11:29N 45°25' W 073°39'3 4.8
2017-Aug-11 10:56N 45°24' W 073°43'4 9.4
2017-Aug-11 10:30N 45°23' W 073°49'611.2
2017-Aug-11 10:00N 45°20' W 073°55'1 1.3
2017-Aug-11 09:30N 45°19' W 073°55'1 1.4
2017-Aug-11 09:00N 45°18' W 073°56'0 0.2
2017-Aug-11 08:29N 45°18' W 073°56'0 1.0
2017-Aug-11 08:00N 45°18' W 073°56'2 3.3
2017-Aug-11 07:30N 45°16' W 073°57'4 7.3
2017-Aug-11 07:00N 45°14' W 074°01'4 8.9
2017-Aug-11 06:30N 45°14' W 074°07'5 9.8
2017-Aug-11 06:00N 45°14' W 074°14'611.9
2017-Aug-11 05:30N 45°10' W 074°21'  

Dump ship's entire track history